createdAt,value
2023-04-18T00:12:25.073Z,6.92
2023-04-18T00:32:25.075Z,6.67
2023-04-18T00:52:25.081Z,6.61
2023-04-18T01:12:25.078Z,6.61
2023-04-18T01:32:25.075Z,6.45
2023-04-18T01:52:25.075Z,6.35
2023-04-18T02:12:25.072Z,6.24
2023-04-18T02:32:25.080Z,6.46
2023-04-18T02:52:24.978Z,6.40
2023-04-18T03:12:24.975Z,6.21
2023-04-18T03:32:24.970Z,6.00
2023-04-18T03:52:24.973Z,5.89
2023-04-18T04:12:24.973Z,5.75
2023-04-18T04:32:24.978Z,5.66
2023-04-18T04:52:24.978Z,5.64
2023-04-18T05:12:24.990Z,5.77
2023-04-18T05:32:24.989Z,5.91
2023-04-18T05:52:25.012Z,6.04
2023-04-18T06:12:25.025Z,6.27
2023-04-18T06:32:25.079Z,6.92
2023-04-18T06:52:25.165Z,7.39
2023-04-18T07:12:24.997Z,7.61
2023-04-18T07:32:25.121Z,8.05
2023-04-18T07:52:25.127Z,8.31
2023-04-18T08:12:25.068Z,8.95
2023-04-18T08:32:25.001Z,9.27
2023-04-18T08:52:24.909Z,9.72
2023-04-18T09:12:24.918Z,10.11
2023-04-18T09:32:24.921Z,10.15
2023-04-18T09:52:24.923Z,10.47
2023-04-18T10:12:24.916Z,10.70
2023-04-18T10:32:24.830Z,11.21
2023-04-18T10:52:24.839Z,11.38
2023-04-18T11:12:24.835Z,11.03
2023-04-18T11:32:24.838Z,11.05
2023-04-18T11:52:24.838Z,11.41
2023-04-18T12:12:24.838Z,11.67
2023-04-18T12:32:24.747Z,10.91
2023-04-18T12:52:24.742Z,10.58
2023-04-18T13:12:24.751Z,10.80
2023-04-18T13:32:24.754Z,10.99
2023-04-18T13:52:24.758Z,10.69
2023-04-18T14:12:24.756Z,10.40
2023-04-18T14:32:24.666Z,10.17
2023-04-18T14:52:24.802Z,9.78
2023-04-18T15:12:24.663Z,9.72
2023-04-18T15:32:24.670Z,9.73
2023-04-18T15:52:24.673Z,9.67
2023-04-18T16:12:24.674Z,9.59
2023-04-18T16:32:24.667Z,9.76
2023-04-18T16:52:24.676Z,9.79
2023-04-18T17:12:24.576Z,9.71
2023-04-18T17:32:24.573Z,9.58
2023-04-18T17:52:24.573Z,9.48
2023-04-18T18:12:24.609Z,9.38
2023-04-18T18:32:24.641Z,9.30
2023-04-18T18:52:24.578Z,9.15
2023-04-18T19:12:24.590Z,8.95
2023-04-18T19:32:24.640Z,8.74
2023-04-18T19:52:24.527Z,8.67
2023-04-18T20:12:24.525Z,8.47
2023-04-18T20:32:24.465Z,8.30
2023-04-18T20:52:24.460Z,8.30
2023-04-18T21:12:24.457Z,8.27
2023-04-18T21:32:24.465Z,8.31
2023-04-18T21:52:24.465Z,8.33
2023-04-18T22:12:24.471Z,8.34
2023-04-18T22:32:24.539Z,8.30
2023-04-18T22:52:24.457Z,8.25
2023-04-18T23:12:24.461Z,8.18
2023-04-18T23:32:24.469Z,8.12
2023-04-18T23:52:24.459Z,8.12
